createdAt,value
2022-09-15T00:01:06.104Z,16.07
2022-09-15T00:03:33.761Z,13.60
2022-09-15T00:06:02.850Z,14.50
2022-09-15T00:08:30.662Z,16.03
2022-09-15T00:11:05.935Z,14.13
2022-09-15T00:13:35.169Z,14.57
2022-09-15T00:16:03.612Z,14.57
2022-09-15T00:18:31.931Z,14.33
2022-09-15T00:20:59.796Z,13.80
2022-09-15T00:23:28.821Z,13.90
2022-09-15T00:25:56.435Z,14.00
2022-09-15T00:28:24.094Z,14.33
2022-09-15T00:30:54.131Z,12.60
2022-09-15T00:33:23.620Z,14.40
2022-09-15T00:35:53.328Z,14.23
2022-09-15T00:38:21.386Z,16.73
2022-09-15T00:40:51.961Z,16.10
2022-09-15T00:43:40.884Z,15.20
2022-09-15T00:46:08.968Z,15.00
2022-09-15T00:48:38.833Z,14.80
2022-09-15T00:51:09.424Z,15.53
2022-09-15T00:53:38.234Z,16.90
2022-09-15T00:56:11.201Z,14.20
2022-09-15T00:58:44.177Z,14.70
2022-09-15T01:01:13.759Z,15.33
2022-09-15T01:03:41.696Z,18.03
2022-09-15T01:06:13.253Z,14.73
2022-09-15T01:08:45.374Z,17.43
2022-09-15T01:11:16.969Z,17.20
2022-09-15T01:13:44.788Z,14.73
2022-09-15T01:16:19.341Z,14.43
2022-09-15T01:18:59.462Z,14.50
2022-09-15T01:21:39.539Z,17.77
2022-09-15T01:24:34.776Z,18.30
2022-09-15T01:27:38.132Z,15.47
2022-09-15T01:30:09.944Z,13.23
2022-09-15T01:33:04.804Z,12.03
2022-09-15T01:35:52.882Z,12.57
2022-09-15T01:38:37.217Z,14.47
2022-09-15T01:41:10.149Z,13.67
2022-09-15T01:43:43.670Z,11.90
2022-09-15T01:46:15.171Z,12.70
2022-09-15T01:48:44.051Z,14.90
2022-09-15T01:51:12.316Z,11.67
2022-09-15T01:53:41.518Z,12.63
2022-09-15T01:56:11.379Z,11.17
2022-09-15T01:58:40.670Z,11.00
2022-09-15T02:01:14.764Z,10.70
2022-09-15T02:03:47.171Z,9.13
2022-09-15T02:06:22.562Z,8.90
2022-09-15T02:08:57.355Z,9.37
2022-09-15T02:11:27.952Z,8.53
2022-09-15T02:14:03.342Z,10.37
2022-09-15T02:16:34.928Z,12.00
2022-09-15T02:19:13.407Z,10.63
2022-09-15T02:21:50.980Z,10.63
2022-09-15T02:24:22.034Z,11.20
2022-09-15T02:26:52.523Z,10.30
2022-09-15T02:29:22.108Z,13.33
2022-09-15T02:31:53.088Z,10.93
2022-09-15T02:34:27.252Z,13.10
2022-09-15T02:36:56.308Z,12.87
2022-09-15T02:39:28.687Z,13.27
2022-09-15T02:41:56.328Z,12.53
2022-09-15T02:44:23.999Z,14.90
2022-09-15T02:46:52.293Z,15.40
2022-09-15T02:49:20.078Z,16.63
2022-09-15T02:51:49.236Z,14.27
2022-09-15T02:54:16.833Z,14.63
2022-09-15T02:56:44.554Z,16.23
2022-09-15T02:59:12.169Z,14.90
2022-09-15T03:01:40.730Z,13.33
2022-09-15T03:04:08.695Z,13.87
2022-09-15T03:06:36.330Z,13.83
2022-09-15T03:09:07.230Z,14.00
2022-09-15T03:11:36.114Z,13.90
2022-09-15T03:14:06.707Z,12.97
2022-09-15T03:16:36.059Z,14.10
2022-09-15T03:19:04.668Z,13.23
2022-09-15T03:21:32.337Z,13.57
2022-09-15T03:24:00.495Z,19.80
2022-09-15T03:26:29.553Z,19.90
2022-09-15T03:28:58.168Z,24.07
2022-09-15T03:31:25.777Z,28.30
2022-09-15T03:33:56.065Z,19.90
2022-09-15T03:36:23.670Z,22.83
2022-09-15T03:38:51.440Z,22.07
2022-09-15T03:41:19.235Z,29.17
2022-09-15T03:43:48.296Z,22.97
2022-09-15T03:46:15.960Z,29.67
2022-09-15T03:48:43.584Z,30.97
2022-09-15T03:51:12.364Z,28.00
2022-09-15T03:53:42.570Z,30.00
2022-09-15T03:56:12.985Z,26.67
2022-09-15T03:58:40.711Z,27.77
2022-09-15T04:01:09.734Z,31.43
2022-09-15T04:03:42.741Z,28.50
2022-09-15T04:06:12.227Z,30.20
2022-09-15T04:08:39.883Z,37.37
2022-09-15T04:11:07.813Z,28.97
2022-09-15T04:13:36.151Z,26.53
2022-09-15T04:16:05.873Z,30.10
2022-09-15T04:18:35.985Z,28.20
2022-09-15T04:21:06.660Z,28.97
2022-09-15T04:23:35.039Z,28.60
2022-09-15T04:26:04.884Z,31.00
2022-09-15T04:28:34.874Z,31.73
2022-09-15T04:31:07.748Z,26.40
2022-09-15T04:33:37.873Z,25.20
2022-09-15T04:36:08.338Z,24.87
2022-09-15T04:38:36.597Z,28.27
2022-09-15T04:41:05.661Z,26.00
2022-09-15T04:43:34.528Z,24.50
2022-09-15T04:46:02.523Z,28.50
2022-09-15T04:48:32.006Z,26.30
2022-09-15T04:51:04.942Z,26.03
2022-09-15T04:53:32.967Z,25.93
2022-09-15T04:56:04.539Z,23.43
2022-09-15T04:58:32.229Z,26.10
2022-09-15T05:00:59.920Z,25.57
2022-09-15T05:03:27.731Z,29.10
2022-09-15T05:05:55.320Z,28.40
2022-09-15T05:08:24.433Z,26.63
2022-09-15T05:10:52.027Z,25.43
2022-09-15T05:13:19.732Z,25.97
2022-09-15T05:15:47.343Z,25.17
2022-09-15T05:18:15.020Z,22.23
2022-09-15T05:20:42.648Z,23.67
2022-09-15T05:23:10.542Z,22.90
2022-09-15T05:25:39.688Z,27.90
2022-09-15T05:28:07.721Z,23.67
2022-09-15T05:30:40.493Z,25.90
2022-09-15T05:33:10.167Z,21.40
2022-09-15T05:35:37.876Z,23.63
2022-09-15T05:38:05.775Z,22.03
2022-09-15T05:40:34.266Z,25.37
2022-09-15T05:43:03.380Z,21.20
2022-09-15T05:45:31.035Z,25.50
2022-09-15T05:47:58.603Z,25.37
2022-09-15T05:50:26.558Z,24.23
2022-09-15T05:52:54.315Z,26.07
2022-09-15T05:55:22.152Z,21.53
2022-09-15T05:57:49.971Z,25.23
2022-09-15T06:00:19.413Z,26.20
2022-09-15T06:02:47.139Z,23.93
2022-09-15T06:05:15.077Z,21.90
2022-09-15T06:07:42.832Z,23.27
2022-09-15T06:10:11.291Z,24.17
2022-09-15T06:12:38.943Z,24.30
2022-09-15T06:15:07.376Z,24.07
2022-09-15T06:17:36.423Z,24.33
2022-09-15T06:20:06.810Z,21.07
2022-09-15T06:22:34.623Z,23.07
2022-09-15T06:25:02.273Z,23.10
2022-09-15T06:27:29.926Z,21.80
2022-09-15T06:29:57.883Z,20.33
2022-09-15T06:32:25.760Z,23.20
2022-09-15T06:34:54.726Z,20.87
2022-09-15T06:37:22.375Z,21.43
2022-09-15T06:39:50.054Z,20.17
2022-09-15T06:42:17.832Z,19.97
2022-09-15T06:44:45.481Z,22.00
2022-09-15T06:47:15.928Z,23.73
2022-09-15T06:49:43.589Z,22.57
2022-09-15T06:52:12.665Z,22.33
2022-09-15T06:54:40.351Z,20.70
2022-09-15T06:57:08.215Z,22.57
2022-09-15T06:59:36.350Z,21.73
2022-09-15T07:02:05.295Z,22.57
2022-09-15T07:04:34.573Z,26.43
2022-09-15T07:07:02.142Z,21.57
2022-09-15T07:09:31.617Z,21.40
2022-09-15T07:11:59.225Z,22.40
2022-09-15T07:14:26.939Z,20.53
2022-09-15T07:16:54.540Z,21.03
2022-09-15T07:19:22.177Z,21.47
2022-09-15T07:21:50.296Z,21.50
2022-09-15T07:24:17.990Z,21.33
2022-09-15T07:26:46.999Z,20.27
2022-09-15T07:29:14.818Z,20.70
2022-09-15T07:31:42.508Z,19.93
2022-09-15T07:34:10.161Z,19.90
2022-09-15T07:36:38.060Z,18.40
2022-09-15T07:39:06.501Z,18.10
2022-09-15T07:41:34.484Z,18.53
2022-09-15T07:44:03.894Z,18.20
2022-09-15T07:46:33.106Z,17.27
2022-09-15T07:49:02.949Z,17.83
2022-09-15T07:51:30.737Z,16.93
2022-09-15T07:53:58.546Z,18.07
2022-09-15T07:56:26.156Z,17.50
2022-09-15T07:58:53.967Z,14.97
2022-09-15T08:01:23.134Z,14.10
2022-09-15T08:03:52.887Z,13.30
2022-09-15T08:06:22.702Z,15.13
2022-09-15T08:08:52.282Z,14.03
2022-09-15T08:11:22.216Z,13.10
2022-09-15T08:13:52.328Z,12.97
2022-09-15T08:16:21.973Z,10.90
2022-09-15T08:18:54.086Z,11.83
2022-09-15T08:21:22.910Z,11.53
2022-09-15T08:23:55.892Z,12.60
2022-09-15T08:26:24.523Z,10.80
2022-09-15T08:28:52.648Z,11.93
2022-09-15T08:31:20.622Z,11.37
2022-09-15T08:33:49.255Z,11.70
2022-09-15T08:36:18.596Z,11.53
2022-09-15T08:38:47.292Z,10.87
2022-09-15T08:41:18.242Z,11.10
2022-09-15T08:43:51.046Z,9.10
2022-09-15T08:46:23.074Z,8.10
2022-09-15T08:49:02.040Z,9.13
2022-09-15T08:51:37.981Z,8.80
2022-09-15T08:54:12.318Z,10.10
2022-09-15T08:56:42.491Z,9.80
2022-09-15T08:59:13.970Z,10.20
2022-09-15T09:01:53.228Z,8.83
2022-09-15T09:04:34.214Z,8.77
2022-09-15T09:07:15.750Z,8.33
2022-09-15T09:09:50.539Z,7.67
2022-09-15T09:12:36.445Z,8.30
2022-09-15T09:15:18.220Z,7.13
2022-09-15T09:18:05.214Z,6.70
2022-09-15T09:20:44.230Z,7.57
2022-09-15T09:23:16.219Z,9.50
2022-09-15T09:25:44.825Z,7.20
2022-09-15T09:28:25.469Z,8.83
2022-09-15T09:30:53.378Z,5.20
2022-09-15T09:33:28.139Z,4.17
2022-09-15T09:35:59.104Z,3.50
2022-09-15T09:38:31.757Z,2.43
2022-09-15T09:41:02.285Z,2.97
2022-09-15T09:43:31.387Z,2.67
2022-09-15T09:45:59.192Z,3.70
2022-09-15T09:48:29.818Z,3.30
2022-09-15T09:50:57.883Z,2.40
2022-09-15T09:53:30.883Z,2.20
2022-09-15T09:56:24.824Z,2.10
2022-09-15T09:58:53.244Z,1.77
2022-09-15T10:01:22.980Z,2.03
2022-09-15T10:03:50.652Z,2.03
2022-09-15T10:06:22.112Z,2.30
2022-09-15T10:08:59.579Z,1.83
2022-09-15T10:11:42.583Z,2.40
2022-09-15T10:14:20.878Z,2.27
2022-09-15T10:17:04.178Z,2.20
2022-09-15T10:19:34.451Z,2.07
2022-09-15T10:22:03.299Z,2.40
2022-09-15T10:24:35.416Z,2.13
2022-09-15T10:27:19.319Z,2.00
2022-09-15T10:29:47.007Z,1.97
2022-09-15T10:32:25.416Z,1.90
2022-09-15T10:35:12.200Z,2.53
2022-09-15T10:37:56.288Z,2.40
2022-09-15T10:40:34.559Z,1.87
2022-09-15T10:43:16.143Z,1.90
2022-09-15T10:45:49.273Z,1.90
2022-09-15T10:48:38.981Z,1.90
2022-09-15T10:51:22.606Z,1.63
2022-09-15T10:54:05.711Z,1.70
2022-09-15T10:56:38.464Z,1.20
2022-09-15T10:59:21.550Z,1.80
2022-09-15T11:02:24.326Z,1.67
2022-09-15T11:05:22.716Z,1.50
2022-09-15T11:08:04.167Z,1.73
2022-09-15T11:10:40.959Z,1.90
2022-09-15T11:13:22.823Z,2.23
2022-09-15T11:16:03.495Z,2.10
2022-09-15T11:18:54.800Z,2.60
2022-09-15T11:21:28.575Z,2.37
2022-09-15T11:24:14.285Z,1.83
2022-09-15T11:26:47.497Z,1.80
2022-09-15T11:29:24.199Z,1.97
2022-09-15T11:31:56.638Z,1.93
2022-09-15T11:34:29.593Z,1.53
2022-09-15T11:37:04.679Z,1.57
2022-09-15T11:39:38.934Z,2.07
2022-09-15T11:42:10.677Z,2.00
2022-09-15T11:44:42.392Z,1.73
2022-09-15T11:47:26.993Z,1.63
2022-09-15T11:49:58.910Z,2.20
2022-09-15T11:52:45.810Z,2.47
2022-09-15T11:55:22.648Z,1.30
2022-09-15T11:57:57.264Z,1.47
2022-09-15T12:00:26.403Z,1.77
2022-09-15T12:03:04.513Z,1.40
2022-09-15T12:05:37.499Z,1.83
2022-09-15T12:08:11.273Z,1.50
2022-09-15T12:10:43.655Z,2.10
2022-09-15T12:13:17.711Z,2.20
2022-09-15T12:15:48.556Z,1.50
2022-09-15T12:18:38.474Z,1.87
2022-09-15T12:21:15.722Z,1.97
2022-09-15T12:23:48.615Z,2.00
2022-09-15T12:26:19.275Z,1.30
2022-09-15T12:28:56.053Z,3.07
2022-09-15T12:31:37.512Z,1.80
2022-09-15T12:34:27.386Z,2.30
2022-09-15T12:36:56.153Z,2.10
2022-09-15T12:39:28.962Z,1.93
2022-09-15T12:42:06.302Z,2.60
2022-09-15T12:44:37.772Z,2.33
2022-09-15T12:47:18.221Z,2.37
2022-09-15T12:49:49.424Z,2.77
2022-09-15T12:52:18.151Z,2.60
2022-09-15T12:54:51.828Z,2.20
2022-09-15T12:57:25.962Z,2.63
2022-09-15T13:00:27.380Z,2.40
2022-09-15T13:02:57.393Z,2.40
2022-09-15T13:06:17.064Z,3.00
2022-09-15T13:09:27.421Z,2.77
2022-09-15T13:11:57.213Z,3.80
2022-09-15T13:14:33.603Z,3.57
2022-09-15T13:17:07.791Z,3.17
2022-09-15T13:19:46.461Z,4.70
2022-09-15T13:22:20.485Z,3.43
2022-09-15T13:24:51.271Z,2.80
2022-09-15T13:27:22.213Z,3.37
2022-09-15T13:29:53.642Z,2.57
2022-09-15T13:32:36.748Z,3.00
2022-09-15T13:35:37.113Z,3.27
2022-09-15T13:38:32.340Z,2.53
2022-09-15T13:41:35.767Z,2.47
2022-09-15T13:44:36.315Z,2.00
2022-09-15T13:47:15.501Z,2.30
2022-09-15T13:49:51.354Z,3.00
2022-09-15T13:52:42.800Z,2.90
2022-09-15T13:55:19.461Z,2.40
2022-09-15T14:00:48.158Z,3.20
2022-09-15T14:03:20.367Z,2.47
2022-09-15T14:05:48.035Z,2.40
2022-09-15T14:08:22.666Z,1.93
2022-09-15T14:10:54.428Z,1.87
2022-09-15T14:13:24.644Z,1.87
2022-09-15T14:16:01.139Z,3.07
2022-09-15T14:18:30.209Z,2.30
2022-09-15T14:21:02.875Z,1.50
2022-09-15T14:23:32.617Z,1.70
2022-09-15T14:26:02.265Z,1.27
2022-09-15T14:28:33.063Z,2.03
2022-09-15T14:31:01.511Z,1.97
2022-09-15T14:33:38.039Z,1.90
2022-09-15T14:36:13.957Z,1.97
2022-09-15T14:38:43.077Z,1.37
2022-09-15T14:41:22.539Z,1.50
2022-09-15T14:43:50.160Z,1.53
2022-09-15T14:46:20.657Z,1.40
2022-09-15T14:48:48.310Z,1.60
2022-09-15T14:51:22.426Z,1.53
2022-09-15T14:53:54.276Z,1.30
2022-09-15T14:56:25.913Z,6.40
2022-09-15T14:58:57.027Z,1.33
2022-09-15T15:01:32.235Z,1.37
2022-09-15T15:04:10.172Z,1.20
2022-09-15T15:06:42.737Z,2.00
2022-09-15T15:09:21.135Z,1.70
2022-09-15T15:11:59.323Z,1.43
2022-09-15T15:14:27.168Z,1.60
2022-09-15T15:16:59.673Z,1.57
2022-09-15T15:19:32.437Z,2.10
2022-09-15T15:22:08.564Z,2.23
2022-09-15T15:24:41.508Z,2.33
2022-09-15T15:27:24.714Z,2.80
2022-09-15T15:29:52.809Z,1.83
2022-09-15T15:32:24.881Z,2.17
2022-09-15T15:34:55.709Z,2.37
2022-09-15T15:37:27.115Z,1.93
2022-09-15T15:39:57.393Z,1.80
2022-09-15T15:42:26.596Z,2.03
2022-09-15T15:45:03.686Z,2.20
2022-09-15T15:47:33.198Z,2.40
2022-09-15T15:50:13.280Z,2.23
2022-09-15T15:52:42.442Z,1.93
2022-09-15T15:55:15.592Z,2.47
2022-09-15T15:57:43.890Z,1.73
2022-09-15T16:00:23.943Z,2.83
2022-09-15T16:02:52.467Z,1.70
2022-09-15T16:05:22.015Z,1.97
2022-09-15T16:07:52.132Z,2.20
2022-09-15T16:10:23.575Z,1.80
2022-09-15T16:12:51.992Z,2.00
2022-09-15T16:15:22.128Z,2.50
2022-09-15T16:17:50.319Z,2.03
2022-09-15T16:20:19.627Z,1.93
2022-09-15T16:22:47.315Z,2.00
2022-09-15T16:25:18.223Z,2.73
2022-09-15T16:27:47.440Z,1.30
2022-09-15T16:30:15.373Z,2.10
2022-09-15T16:32:43.091Z,2.20
2022-09-15T16:35:31.124Z,2.00
2022-09-15T16:37:58.795Z,1.90
2022-09-15T16:40:26.941Z,2.10
2022-09-15T16:42:56.190Z,2.37
2022-09-15T16:45:30.684Z,1.73
2022-09-15T16:47:59.265Z,2.10
2022-09-15T16:50:27.439Z,2.07
2022-09-15T16:52:55.460Z,1.80
2022-09-15T16:55:35.204Z,2.40
2022-09-15T16:58:05.197Z,2.50
2022-09-15T17:00:35.319Z,1.80
2022-09-15T17:03:03.283Z,2.10
2022-09-15T17:05:35.650Z,1.80
2022-09-15T17:08:03.786Z,2.10
2022-09-15T17:10:31.675Z,1.60
2022-09-15T17:12:59.321Z,1.83
2022-09-15T17:15:30.313Z,2.20
2022-09-15T17:17:58.664Z,1.80
2022-09-15T17:20:27.182Z,2.30
2022-09-15T17:22:55.208Z,1.73
2022-09-15T17:25:26.560Z,1.30
2022-09-15T17:27:54.668Z,1.50
2022-09-15T17:30:24.677Z,2.33
2022-09-15T17:32:53.681Z,1.63
2022-09-15T17:35:24.197Z,1.40
2022-09-15T17:37:52.727Z,1.67
2022-09-15T17:40:22.003Z,1.40
2022-09-15T17:42:50.006Z,1.40
2022-09-15T17:45:21.596Z,1.83
2022-09-15T17:47:49.531Z,1.73
2022-09-15T17:50:20.375Z,1.57
2022-09-15T17:52:49.543Z,1.60
2022-09-15T17:55:21.155Z,1.40
2022-09-15T17:57:49.828Z,1.43
2022-09-15T18:00:19.709Z,2.00
2022-09-15T18:02:50.857Z,1.50
2022-09-15T18:05:23.605Z,1.20
2022-09-15T18:07:51.774Z,1.93
2022-09-15T18:10:19.733Z,1.87
2022-09-15T18:12:49.233Z,1.50
2022-09-15T18:15:21.106Z,1.43
2022-09-15T18:17:49.312Z,1.90
2022-09-15T18:20:20.470Z,1.20
2022-09-15T18:22:49.797Z,1.47
2022-09-15T18:25:20.422Z,1.77
2022-09-15T18:27:49.276Z,1.50
2022-09-15T18:30:17.583Z,1.20
2022-09-15T18:32:45.745Z,1.50
2022-09-15T18:35:18.491Z,1.40
2022-09-15T18:37:47.824Z,2.23
2022-09-15T18:40:18.595Z,1.40
2022-09-15T18:42:47.322Z,2.13
2022-09-15T18:45:16.832Z,1.43
2022-09-15T18:47:47.261Z,1.40
2022-09-15T18:50:14.820Z,1.70
2022-09-15T18:52:42.554Z,1.93
2022-09-15T18:55:14.589Z,2.20
2022-09-15T18:57:44.070Z,2.03
2022-09-15T19:00:14.491Z,2.03
2022-09-15T19:02:42.229Z,1.67
2022-09-15T19:05:12.218Z,2.27
2022-09-15T19:07:40.197Z,2.80
2022-09-15T19:10:09.304Z,2.53
2022-09-15T19:12:36.999Z,2.50
2022-09-15T19:15:10.878Z,2.53
2022-09-15T19:17:39.731Z,2.13
2022-09-15T19:20:09.673Z,2.67
2022-09-15T19:22:37.696Z,2.80
2022-09-15T19:25:06.547Z,3.13
2022-09-15T19:27:34.778Z,2.27
2022-09-15T19:30:02.668Z,1.97
2022-09-15T19:32:33.713Z,2.37
2022-09-15T19:35:01.354Z,2.50
2022-09-15T19:37:29.052Z,2.43
2022-09-15T19:39:56.751Z,2.83
2022-09-15T19:42:24.414Z,2.50
2022-09-15T19:44:52.027Z,2.07
2022-09-15T19:47:19.682Z,2.57
2022-09-15T19:49:48.589Z,2.30
2022-09-15T19:52:16.263Z,1.80
2022-09-15T19:54:44.109Z,2.00
2022-09-15T19:57:11.768Z,1.80
2022-09-15T19:59:39.380Z,1.77
2022-09-15T20:02:07.596Z,1.93
2022-09-15T20:04:35.210Z,2.03
2022-09-15T20:07:04.265Z,2.07
2022-09-15T20:09:32.382Z,2.20
2022-09-15T20:12:03.089Z,1.90
2022-09-15T20:14:30.836Z,2.20
2022-09-15T20:17:01.048Z,2.07
2022-09-15T20:19:29.476Z,2.40
2022-09-15T20:21:57.122Z,1.77
2022-09-15T20:24:26.236Z,2.30
2022-09-15T20:26:53.817Z,2.17
2022-09-15T20:29:23.676Z,2.17
2022-09-15T20:31:52.231Z,1.70
2022-09-15T20:34:19.847Z,2.27
2022-09-15T20:36:47.443Z,2.63
2022-09-15T20:39:19.330Z,1.53
2022-09-15T20:41:48.792Z,2.40
2022-09-15T20:44:16.682Z,2.07
2022-09-15T20:46:44.366Z,1.60
2022-09-15T20:49:12.411Z,1.50
2022-09-15T20:51:40.021Z,2.30
2022-09-15T20:54:07.624Z,2.50
2022-09-15T20:56:36.960Z,1.73
2022-09-15T20:59:10.102Z,1.93
2022-09-15T21:01:39.529Z,2.10
2022-09-15T21:04:08.774Z,1.90
2022-09-15T21:06:36.776Z,2.50
2022-09-15T21:09:05.522Z,2.40
2022-09-15T21:11:33.918Z,2.27
2022-09-15T21:14:02.418Z,2.73
2022-09-15T21:16:33.669Z,2.73
2022-09-15T21:19:01.471Z,2.40
2022-09-15T21:21:30.728Z,2.30
2022-09-15T21:24:03.357Z,2.00
2022-09-15T21:26:32.911Z,2.27
2022-09-15T21:29:00.566Z,2.27
2022-09-15T21:31:30.236Z,2.10
2022-09-15T21:33:59.883Z,2.20
2022-09-15T21:36:29.498Z,2.30
2022-09-15T21:38:59.113Z,1.60
2022-09-15T21:41:29.011Z,2.03
2022-09-15T21:43:58.171Z,1.77
2022-09-15T21:46:27.804Z,2.10
2022-09-15T21:48:57.427Z,2.13
2022-09-15T21:51:28.358Z,2.23
2022-09-15T21:53:57.023Z,1.93
2022-09-15T21:56:25.609Z,1.80
2022-09-15T21:58:54.232Z,3.10
2022-09-15T22:01:23.904Z,2.00
2022-09-15T22:03:53.176Z,2.00
2022-09-15T22:06:22.198Z,2.10
2022-09-15T22:08:51.120Z,2.00
2022-09-15T22:11:18.716Z,1.70
2022-09-15T22:13:46.508Z,3.10
2022-09-15T22:16:16.779Z,1.60
2022-09-15T22:18:45.170Z,2.53
2022-09-15T22:21:14.963Z,2.33
2022-09-15T22:23:43.644Z,2.07
2022-09-15T22:26:16.015Z,2.07
2022-09-15T22:28:44.204Z,1.80
2022-09-15T22:31:16.224Z,1.53
2022-09-15T22:33:43.862Z,1.80
2022-09-15T22:36:11.513Z,2.20
2022-09-15T22:38:39.291Z,1.53
2022-09-15T22:41:08.991Z,1.57
2022-09-15T22:43:37.969Z,1.80
2022-09-15T22:46:06.351Z,1.30
2022-09-15T22:48:34.093Z,2.00
2022-09-15T22:51:02.539Z,1.30
2022-09-15T22:53:30.149Z,2.20
2022-09-15T22:56:05.869Z,1.47
2022-09-15T22:58:33.654Z,1.60
2022-09-15T23:01:08.028Z,1.40
2022-09-15T23:03:35.828Z,1.57
2022-09-15T23:06:04.085Z,1.50
2022-09-15T23:08:32.718Z,1.83
2022-09-15T23:11:05.932Z,1.83
2022-09-15T23:13:33.864Z,2.00
2022-09-15T23:16:01.965Z,1.63
2022-09-15T23:18:31.381Z,1.90
2022-09-15T23:21:00.732Z,1.50
2022-09-15T23:23:29.365Z,2.00
2022-09-15T23:25:57.614Z,2.13
2022-09-15T23:28:25.363Z,1.60
2022-09-15T23:30:53.641Z,1.77
2022-09-15T23:33:22.054Z,1.27
2022-09-15T23:35:51.859Z,1.70
2022-09-15T23:38:20.694Z,2.43
2022-09-15T23:40:49.732Z,1.40
2022-09-15T23:43:18.060Z,1.60
2022-09-15T23:45:46.652Z,1.80
2022-09-15T23:48:15.375Z,1.40
2022-09-15T23:50:43.971Z,1.60
2022-09-15T23:53:13.444Z,2.23
2022-09-15T23:55:41.087Z,1.80
2022-09-15T23:58:08.711Z,1.80
